Van Wyck, SC

11:04 PM EDT on May 29, 2015 (GMT -0400)
KSCVANWY1 | | Change Station
CLOSE
Current Station
Personal Weather Station
Location: Van Wyck, SC
Elevation: 584 ft
Nearby Weather Stations

Elev 584 ft 34.86 °N, 80.84 °W | Updated 4 seconds ago

Clear
Clear
71.4 °F
Feels Like 75 °F
N
2.0
Wind Variable Wind from SE
Gusts 3.0 mph

Today
High -- | Low -- °F
--% Chance of Precip.
Yesterday
High -- | Low -- °F
Precip. -- in
6:12 AM 8:29 PM
Waxing Gibbous, 87% visible
Pressure 30.17 in
Visibility 10.0 miles
Clouds Scattered Clouds 7000 ft
Heat Index 75 °F
Dew Point 60 °F
Humidity 67%
Rainfall 0.00 in
Snow Depth Not available.
UV 0 out of 12
Pollen 5.80 out of 12
Air Quality Not available.
Flu Activity Local Activity
METAR KUZA 300254Z AUTO 18003KT 10SM SCT070 22/15 A3020 RMK AO2 SLP216 T02220150 53014

More Conditions Fewer Conditions

Pressure 30.17 in
Visibility 10.0 miles
Clouds Scattered Clouds 7000 ft
Heat Index 75 °F
Dew Point 60 °F
Humidity 67%
Rainfall 0.00 in
Snow Depth Not available.
UV 0 out of 12
Pollen 5.80 out of 12
Air Quality Not available.
Flu Activity Local Activity
METAR KUZA 300254Z AUTO 18003KT 10SM SCT070 22/15 A3020 RMK AO2 SLP216 T02220150 53014

More Conditions Fewer Conditions

10-Day Weather Forecast

Almanac

Astronomy

May. 29, 2015 Rise Set
Actual Time
Civil Twilight
Nautical Twilight
Astronomical Twilight
Moon
Length of Visible Light
Length of Day
Tomorrow will be .
, % of the Moon is Illuminated

Today's Extremes

State Highs State Lows

Community

WunderPhotos

Upload Photos

1,825,437 photos uploaded!

WunderBlogs® & News

Nearby

Air Quality

  Air Quality AQ Index Pollutant
Not available.

Snow Depth

Station Depth Elevation

Earthquake Activity

City Distance Mag. Time & Date
Minimum magnitude displayed is 2.5.

Coastal Water Temperatures

Place Temperature

Stations

Nearby Weather Stations

Station Location Temp. Windchill Dew Point Humidity Wind Precip. Elev Updated Type